Wetterdaten: aktuell Samstag, 18.01.2020 07:00
Datum Zeit Temp. 2 m Feuchte 2 m Luftdruck Regen Wind Richtung Richtung Taupunkt Windchill Windben
18.01.2020 07:00 5,5 C 77 % 1023,0 hPa 0,0 l/m 18,4 km/h (3 Bft) NW 315 1,8 C -1,9 C 22,0 km/h (4 Bft)
18.01.2020 06:55 5,6 C 77 % 1023,0 hPa 0,0 l/m 7,9 km/h (2 Bft) N-NW 337 1,9 C 4,3 C 15,5 km/h (3 Bft)
18.01.2020 06:50 5,6 C 78 % 1023,0 hPa 0,0 l/m 12,2 km/h (2 Bft) W-NW 292 2,1 C 1,3 C 17,6 km/h (3 Bft)
18.01.2020 06:45 5,6 C 78 % 1023,0 hPa 0,0 l/m 14,0 km/h (3 Bft) W 270 2,1 C 0,3 C 19,8 km/h (3 Bft)
18.01.2020 06:40 5,7 C 78 % 1023,0 hPa 0,0 l/m 16,6 km/h (3 Bft) W 270 2,2 C -0,8 C 19,8 km/h (3 Bft)
18.01.2020 06:35 5,7 C 79 % 1023,0 hPa 0,0 l/m 6,1 km/h (2 Bft) W 270 2,3 C 5,7 C 15,5 km/h (3 Bft)
18.01.2020 06:30 5,8 C 79 % 1023,0 hPa 0,0 l/m 10,1 km/h (2 Bft) W-NW 292 2,4 C 2,9 C 17,6 km/h (3 Bft)
18.01.2020 06:25 5,8 C 79 % 1023,0 hPa 0,0 l/m 7,6 km/h (2 Bft) NW 315 2,4 C 4,8 C 13,3 km/h (3 Bft)
18.01.2020 06:20 5,9 C 79 % 1023,0 hPa 0,0 l/m 12,2 km/h (2 Bft) W-SW 247 2,5 C 1,7 C 15,5 km/h (3 Bft)
18.01.2020 06:15 5,9 C 79 % 1022,0 hPa 0,0 l/m 10,1 km/h (2 Bft) W 270 2,5 C 3,0 C 15,5 km/h (3 Bft)
18.01.2020 06:10 5,9 C 79 % 1022,0 hPa 0,0 l/m 7,6 km/h (2 Bft) W 270 2,5 C 4,9 C 13,3 km/h (3 Bft)
18.01.2020 06:05 5,9 C 80 % 1022,0 hPa 0,0 l/m 4,7 km/h (1 Bft) W 270 2,7 C 5,9 C 6,5 km/h (2 Bft)
18.01.2020 06:00 5,9 C 80 % 1023,0 hPa 0,0 l/m 8,6 km/h (2 Bft) W 270 2,7 C 4,1 C 13,3 km/h (3 Bft)
18.01.2020 05:55 6,0 C 80 % 1023,0 hPa 0,0 l/m 6,5 km/h (2 Bft) W 270 2,8 C 5,9 C 8,6 km/h (2 Bft)
18.01.2020 05:50 6,0 C 80 % 1022,0 hPa 0,0 l/m 10,1 km/h (2 Bft) W 270 2,8 C 3,1 C 13,3 km/h (3 Bft)
18.01.2020 05:45 6,0 C 80 % 1023,0 hPa 0,0 l/m 6,5 km/h (2 Bft) W 270 2,8 C 5,9 C 8,6 km/h (2 Bft)
18.01.2020 05:40 6,0 C 80 % 1022,0 hPa 0,0 l/m 10,4 km/h (2 Bft) W-NW 292 2,8 C 2,9 C 13,3 km/h (3 Bft)
18.01.2020 05:35 6,0 C 80 % 1022,0 hPa 0,0 l/m 6,8 km/h (2 Bft) W 270 2,8 C 5,7 C 8,6 km/h (2 Bft)
18.01.2020 05:30 6,1 C 80 % 1022,0 hPa 0,0 l/m 5,8 km/h (2 Bft) W-NW 292 2,9 C 6,1 C 8,6 km/h (2 Bft)
18.01.2020 05:25 6,1 C 80 % 1022,0 hPa 0,0 l/m 6,5 km/h (2 Bft) W-SW 247 2,9 C 6,0 C 8,6 km/h (2 Bft)
18.01.2020 05:20 6,2 C 80 % 1022,0 hPa 0,0 l/m 8,3 km/h (2 Bft) W-NW 292 3,0 C 4,6 C 11,2 km/h (2 Bft)
18.01.2020 05:15 6,2 C 80 % 1022,0 hPa 0,3 l/m 6,8 km/h (2 Bft) W-NW 292 3,0 C 5,9 C 8,6 km/h (2 Bft)
18.01.2020 05:10 6,2 C 80 % 1022,0 hPa 0,0 l/m 4,0 km/h (1 Bft) W 270 3,0 C 6,2 C 6,5 km/h (2 Bft)
18.01.2020 05:05 6,3 C 80 % 1022,0 hPa 0,0 l/m 5,0 km/h (1 Bft) W 270 3,1 C 6,3 C 6,5 km/h (2 Bft)
18.01.2020 05:00 6,3 C 81 % 1022,0 hPa 0,0 l/m 9,0 km/h (2 Bft) W-NW 292 3,3 C 4,2 C 13,3 km/h (3 Bft)
18.01.2020 04:55 6,3 C 81 % 1022,0 hPa 0,0 l/m 8,6 km/h (2 Bft) W 270 3,3 C 4,5 C 13,3 km/h (3 Bft)
18.01.2020 04:50 6,3 C 81 % 1022,0 hPa 0,0 l/m 6,5 km/h (2 Bft) W 270 3,3 C 6,2 C 8,6 km/h (2 Bft)
18.01.2020 04:45 6,4 C 81 % 1022,0 hPa 0,0 l/m 5,4 km/h (2 Bft) W 270 3,4 C 6,4 C 8,6 km/h (2 Bft)
18.01.2020 04:40 6,4 C 81 % 1022,0 hPa 0,0 l/m 4,0 km/h (1 Bft) W 270 3,4 C 6,4 C 8,6 km/h (2 Bft)
18.01.2020 04:35 6,4 C 81 % 1022,0 hPa 0,0 l/m 6,1 km/h (2 Bft) W 270 3,4 C 6,4 C 8,6 km/h (2 Bft)
18.01.2020 04:30 6,4 C 81 % 1022,0 hPa 0,0 l/m 5,4 km/h (2 Bft) W-SW 247 3,4 C 6,4 C 8,6 km/h (2 Bft)
18.01.2020 04:25 6,5 C 81 % 1022,0 hPa 0,0 l/m 6,8 km/h (2 Bft) W 270 3,5 C 6,2 C 8,6 km/h (2 Bft)
18.01.2020 04:20 6,5 C 81 % 1022,0 hPa 0,0 l/m 10,4 km/h (2 Bft) W 270 3,5 C 3,5 C 15,5 km/h (3 Bft)
18.01.2020 04:15 6,5 C 81 % 1022,0 hPa 0,0 l/m 12,2 km/h (2 Bft) W-SW 247 3,5 C 2,4 C 15,5 km/h (3 Bft)
18.01.2020 04:10 6,5 C 81 % 1022,0 hPa 0,0 l/m 11,2 km/h (2 Bft) W 270 3,5 C 3,0 C 13,3 km/h (3 Bft)
18.01.2020 04:05 6,6 C 81 % 1022,0 hPa 0,0 l/m 9,7 km/h (2 Bft) W 270 3,6 C 4,0 C 13,3 km/h (3 Bft)
18.01.2020 04:00 6,6 C 81 % 1022,0 hPa 0,0 l/m 7,2 km/h (2 Bft) W 270 3,6 C 5,9 C 17,6 km/h (3 Bft)
18.01.2020 03:55 6,6 C 81 % 1021,0 hPa 0,0 l/m 7,9 km/h (2 Bft) W 270 3,6 C 5,4 C 13,3 km/h (3 Bft)
18.01.2020 03:50 6,7 C 81 % 1021,0 hPa 0,0 l/m 10,1 km/h (2 Bft) W 270 3,7 C 3,9 C 13,3 km/h (3 Bft)
18.01.2020 03:45 6,7 C 81 % 1021,0 hPa 0,0 l/m 9,7 km/h (2 Bft) W 270 3,7 C 4,2 C 13,3 km/h (3 Bft)
18.01.2020 03:40 6,6 C 81 % 1021,0 hPa 0,0 l/m 10,8 km/h (2 Bft) W 270 3,6 C 3,3 C 17,6 km/h (3 Bft)
18.01.2020 03:35 6,6 C 81 % 1021,0 hPa 0,0 l/m 4,3 km/h (1 Bft) W 270 3,6 C 6,6 C 11,2 km/h (2 Bft)
18.01.2020 03:30 6,6 C 81 % 1021,0 hPa 0,0 l/m 5,4 km/h (2 Bft) W-SW 247 3,6 C 6,6 C 8,6 km/h (2 Bft)
18.01.2020 03:25 6,6 C 81 % 1021,0 hPa 0,0 l/m 6,5 km/h (2 Bft) W-NW 292 3,6 C 6,5 C 8,6 km/h (2 Bft)
18.01.2020 03:20 6,6 C 81 % 1021,0 hPa 0,0 l/m 4,7 km/h (1 Bft) SW 225 3,6 C 6,6 C 8,6 km/h (2 Bft)
18.01.2020 03:15 6,6 C 81 % 1021,0 hPa 0,0 l/m 9,7 km/h (2 Bft) W-SW 247 3,6 C 4,0 C 15,5 km/h (3 Bft)
18.01.2020 03:10 6,6 C 81 % 1021,0 hPa 0,0 l/m 8,6 km/h (2 Bft) W-SW 247 3,6 C 4,8 C 13,3 km/h (3 Bft)
18.01.2020 03:05 6,6 C 81 % 1021,0 hPa 0,0 l/m 7,6 km/h (2 Bft) W 270 3,6 C 5,6 C 13,3 km/h (3 Bft)
18.01.2020 03:00 6,5 C 81 % 1021,0 hPa 0,0 l/m 7,6 km/h (2 Bft) W-SW 247 3,5 C 5,5 C 8,6 km/h (2 Bft)
18.01.2020 02:55 6,5 C 81 % 1021,0 hPa 0,0 l/m 10,1 km/h (2 Bft) W 270 3,5 C 3,7 C 15,5 km/h (3 Bft)
18.01.2020 02:50 6,5 C 81 % 1021,0 hPa 0,0 l/m 2,9 km/h (1 Bft) W-SW 247 3,5 C 6,5 C 6,5 km/h (2 Bft)
18.01.2020 02:45 6,4 C 82 % 1021,0 hPa 0,0 l/m 6,5 km/h (2 Bft) W-SW 247 3,6 C 6,3 C 13,3 km/h (3 Bft)
18.01.2020 02:40 6,4 C 81 % 1021,0 hPa 0,0 l/m 6,1 km/h (2 Bft) W 270 3,4 C 6,4 C 6,5 km/h (2 Bft)
18.01.2020 02:35 6,4 C 81 % 1021,0 hPa 0,0 l/m 4,7 km/h (1 Bft) W 270 3,4 C 6,4 C 11,2 km/h (2 Bft)
18.01.2020 02:30 6,4 C 81 % 1021,0 hPa 0,0 l/m 6,5 km/h (2 Bft) W-SW 247 3,4 C 6,3 C 8,6 km/h (2 Bft)
18.01.2020 02:25 6,4 C 81 % 1021,0 hPa 0,0 l/m 5,4 km/h (2 Bft) W-SW 247 3,4 C 6,4 C 6,5 km/h (2 Bft)
18.01.2020 02:20 6,4 C 81 % 1021,0 hPa 0,0 l/m 4,3 km/h (1 Bft) W-SW 247 3,4 C 6,4 C 11,2 km/h (2 Bft)
18.01.2020 02:15 6,4 C 81 % 1021,0 hPa 0,0 l/m 5,4 km/h (2 Bft) W-SW 247 3,4 C 6,4 C 8,6 km/h (2 Bft)
18.01.2020 02:10 6,4 C 81 % 1021,0 hPa 0,0 l/m 6,5 km/h (2 Bft) W-SW 247 3,4 C 6,3 C 13,3 km/h (3 Bft)
18.01.2020 02:05 6,5 C 81 % 1021,0 hPa 0,0 l/m 6,5 km/h (2 Bft) W 270 3,5 C 6,4 C 11,2 km/h (2 Bft)
18.01.2020 02:00 6,4 C 81 % 1021,0 hPa 0,0 l/m 6,1 km/h (2 Bft) W-SW 247 3,4 C 6,4 C 8,6 km/h (2 Bft)
_ Min-Zeit 08:30 13:40 14:15 - 14:50 - - 08:30 08:40 14:50
Minimum _ 0,5 C 72 % 1018,0 hPa - 0,0 km/h (0 Bft) - - -1,4 C -8,0 C 0,0 km/h (0 Bft)
_ Max-Zeit 03:45 08:00 08:00 05:15 12:20 - - 03:45 03:20 11:35
Maximum _ 6,7 C 87 % 1024,0 hPa 0,3 l/m 24,1 km/h
S-SO (4 Bft)
- - 3,7 C 6,6 C 35,3 km/h
S-SO (5 Bft)
Durchschnitt _ 4,3 C 80 % 1020,5 hPa #0,3 l/m 7,8 km/h (2 Bft) SO - 1,1 C 2,5 C 11,7 km/h (2 Bft)